Terminal Aerodrome Forecast
Issued by NWS

Home | Current Version | Previous Version | Text Only | Print | Product List | Glossary On
Versions: 1 2 3 4 5 6 7 8 9 10 11 12 13 14 15
482
FTUS43 KLSX 170520
TAFUIN
TAF
KUIN 170520Z 1706/1806 20006KT P6SM FEW250
     FM171500 20010G15KT P6SM FEW250
     FM180000 18006KT P6SM SKC=

USA.gov is the U.S. government's official web portal to all federal, state and local government web resources and services.